Time;durP1;ratioP1;P1;durP2;ratioP2;P2;SDS_P1;SDS_P2;PMS_P1;PMS_P2;Temp;Humidity;BMP_temperature;BMP_pressure;BME280_temperature;BME280_humidity;BME280_pressure;Samples;Min_cycle;Max_cycle;Signal;HPM_P1;HPM_P2
2021/11/29 00:00:27;;;;;;;4.63;1.00;;;4.00;72.60;;;;;;4954957;28;99178;-72
2021/11/29 00:02:58;;;;;;;5.30;0.95;;;4.10;72.50;;;;;;4937014;28;100038;-72
2021/11/29 00:05:27;;;;;;;3.88;1.00;;;4.10;72.80;;;;;;4953850;28;99194;-72
2021/11/29 00:07:56;;;;;;;3.25;1.00;;;4.10;72.60;;;;;;4955177;28;98579;-72
2021/11/29 00:10:23;;;;;;;2.97;1.13;;;4.10;73.00;;;;;;4954307;28;99044;-72
2021/11/29 00:12:50;;;;;;;2.55;0.80;;;4.10;72.90;;;;;;4954346;28;114082;-72
2021/11/29 00:15:17;;;;;;;4.63;1.20;;;4.10;72.20;;;;;;4954860;28;98565;-73
2021/11/29 00:17:44;;;;;;;3.13;0.95;;;4.00;72.20;;;;;;4953806;28;98634;-72
2021/11/29 00:20:14;;;;;;;4.38;1.20;;;3.90;72.20;;;;;;4936817;28;100140;-72
2021/11/29 00:22:41;;;;;;;2.50;0.80;;;3.80;72.50;;;;;;4937126;28;100066;-72
2021/11/29 00:25:09;;;;;;;4.10;1.30;;;3.80;72.80;;;;;;4954749;28;98538;-72
2021/11/29 00:27:38;;;;;;;2.28;0.93;;;3.70;72.60;;;;;;4937598;28;98599;-72
2021/11/29 00:30:08;;;;;;;3.70;0.90;;;3.70;72.60;;;;;;4936273;28;101024;-72
2021/11/29 00:32:35;;;;;;;4.45;1.08;;;3.60;73.10;;;;;;4953140;28;99471;-72
2021/11/29 00:35:03;;;;;;;4.65;0.82;;;3.50;72.90;;;;;;4954448;28;107135;-72
2021/11/29 00:37:30;;;;;;;0.98;0.65;;;3.50;73.10;;;;;;4954550;28;98500;-72
2021/11/29 00:39:57;;;;;;;3.90;1.20;;;3.50;73.30;;;;;;4954442;28;98575;-72
2021/11/29 00:42:24;;;;;;;5.50;1.25;;;3.40;73.40;;;;;;4952772;28;99896;-72
2021/11/29 00:44:51;;;;;;;4.13;0.95;;;3.40;72.90;;;;;;4954769;28;98520;-72
2021/11/29 00:47:18;;;;;;;5.28;1.20;;;3.40;73.80;;;;;;4954704;28;97770;-72
2021/11/29 00:49:45;;;;;;;1.23;0.90;;;3.30;73.30;;;;;;4954085;28;99236;-72
2021/11/29 00:52:12;;;;;;;3.35;0.90;;;3.30;73.60;;;;;;4953750;28;106874;-72
2021/11/29 00:54:39;;;;;;;3.42;1.15;;;3.30;73.70;;;;;;4936575;28;99317;-72
2021/11/29 00:57:06;;;;;;;2.83;1.58;;;3.30;73.80;;;;;;4936730;28;98627;-72
2021/11/29 00:59:33;;;;;;;4.22;1.10;;;3.30;73.50;;;;;;4936626;28;100933;-72
2021/11/29 01:02:00;;;;;;;5.70;1.13;;;3.20;73.80;;;;;;4954244;28;99288;-72
2021/11/29 01:04:27;;;;;;;3.45;1.17;;;3.20;74.00;;;;;;4954296;28;98442;-72
2021/11/29 01:06:54;;;;;;;4.38;1.27;;;3.20;74.00;;;;;;4952975;28;98573;-72
2021/11/29 01:09:21;;;;;;;3.95;0.90;;;3.20;74.30;;;;;;4935960;28;100370;-73
2021/11/29 01:11:48;;;;;;;4.40;1.02;;;3.20;75.00;;;;;;4953009;28;98886;-73
2021/11/29 01:14:15;;;;;;;4.40;0.93;;;3.20;75.00;;;;;;4954276;28;98946;-72
2021/11/29 01:16:41;;;;;;;5.75;0.90;;;3.30;75.80;;;;;;4954344;28;98529;-73
2021/11/29 01:19:09;;;;;;;5.85;1.00;;;3.40;75.00;;;;;;4953346;28;100802;-72
2021/11/29 01:21:36;;;;;;;2.80;0.90;;;3.50;74.10;;;;;;4936392;28;99557;-72
2021/11/29 01:24:03;;;;;;;7.00;1.20;;;3.60;74.90;;;;;;4953030;28;98547;-72
2021/11/29 01:26:30;;;;;;;4.60;1.33;;;3.60;74.50;;;;;;4935858;28;103253;-72
2021/11/29 01:28:57;;;;;;;3.95;1.10;;;3.70;74.80;;;;;;4953150;28;101260;-72
2021/11/29 01:31:24;;;;;;;2.35;1.33;;;3.70;75.20;;;;;;4953348;28;98860;-73
2021/11/29 01:33:51;;;;;;;6.05;1.02;;;3.80;74.80;;;;;;4954117;28;98591;-72
2021/11/29 01:36:18;;;;;;;4.15;1.20;;;3.90;74.90;;;;;;4936686;28;97766;-72
2021/11/29 01:38:45;;;;;;;6.10;1.15;;;3.90;75.30;;;;;;4952991;28;100108;-69
2021/11/29 01:41:16;;;;;;;6.20;1.13;;;4.00;75.80;;;;;;4953463;28;98782;-68
2021/11/29 01:43:44;;;;;;;3.78;0.80;;;4.00;76.80;;;;;;4953177;28;99210;-69
2021/11/29 01:46:12;;;;;;;2.38;1.00;;;4.10;78.50;;;;;;4953145;28;105735;-72
2021/11/29 01:48:39;;;;;;;4.38;1.00;;;4.10;78.50;;;;;;4951937;28;99088;-72
2021/11/29 01:51:05;;;;;;;2.47;0.90;;;4.20;79.40;;;;;;4953569;28;98887;-72
2021/11/29 01:53:33;;;;;;;4.90;0.90;;;4.20;78.30;;;;;;4953231;28;98526;-72
2021/11/29 01:56:00;;;;;;;3.90;1.02;;;4.30;78.60;;;;;;4953550;28;98567;-72
2021/11/29 01:58:31;;;;;;;3.83;0.93;;;4.30;79.40;;;;;;4952487;28;99221;-72
2021/11/29 02:01:02;;;;;;;3.72;0.80;;;4.30;80.30;;;;;;4953484;28;98843;-72
2021/11/29 02:03:30;;;;;;;5.10;0.88;;;4.30;80.30;;;;;;4953403;28;98540;-72
2021/11/29 02:05:57;;;;;;;3.30;0.70;;;4.30;81.40;;;;;;4952817;28;100675;-69
2021/11/29 02:08:25;;;;;;;2.08;0.93;;;4.30;80.70;;;;;;4952110;28;105368;-72
2021/11/29 02:10:52;;;;;;;1.10;0.60;;;4.20;80.70;;;;;;4952889;28;99431;-72
2021/11/29 02:13:20;;;;;;;2.75;0.85;;;4.20;81.10;;;;;;4951579;28;99376;-72
2021/11/29 02:15:51;;;;;;;1.75;0.82;;;4.20;81.10;;;;;;4935608;28;98682;-72
2021/11/29 02:18:24;;;;;;;2.67;0.70;;;4.20;81.00;;;;;;4952691;28;99449;-69
2021/11/29 02:21:13;;;;;;;1.98;0.90;;;4.20;81.80;;;;;;4935084;28;101594;-68
2021/11/29 02:23:43;;;;;;;1.63;0.70;;;4.20;82.50;;;;;;4953148;28;98532;-69
2021/11/29 02:26:10;;;;;;;6.43;0.80;;;4.10;82.00;;;;;;4953716;28;97752;-68
2021/11/29 02:28:40;;;;;;;4.40;0.93;;;4.10;82.60;;;;;;4952081;28;108342;-69
2021/11/29 02:31:15;;;;;;;1.50;0.80;;;4.10;82.40;;;;;;4952696;28;98726;-72
2021/11/29 02:33:42;;;;;;;1.92;0.68;;;4.10;82.70;;;;;;4952657;28;99237;-72
2021/11/29 02:36:09;;;;;;;2.78;0.70;;;4.00;84.00;;;;;;4935671;28;98584;-72
2021/11/29 02:38:37;;;;;;;2.30;0.60;;;4.00;85.10;;;;;;4952232;28;99147;-69
2021/11/29 02:41:06;;;;;;;2.38;0.65;;;3.90;84.60;;;;;;4954437;28;101310;-69
2021/11/29 02:43:34;;;;;;;1.60;0.80;;;4.00;85.10;;;;;;4956187;28;98542;-69
2021/11/29 02:46:01;;;;;;;2.50;1.13;;;4.00;85.00;;;;;;4955225;28;98617;-69
2021/11/29 02:48:46;;;;;;;0.88;0.50;;;4.10;85.00;;;;;;4955965;28;98967;-68
2021/11/29 02:51:22;;;;;;;0.95;0.50;;;4.10;84.10;;;;;;4938919;28;102993;-69
2021/11/29 02:53:52;;;;;;;1.10;0.50;;;4.10;83.50;;;;;;4938687;28;98594;-69
2021/11/29 02:56:20;;;;;;;0.40;0.40;;;4.10;83.40;;;;;;4938614;28;98501;-72
2021/11/29 02:58:47;;;;;;;1.35;0.40;;;4.00;83.30;;;;;;4954884;28;102684;-72
2021/11/29 03:01:14;;;;;;;3.22;0.57;;;4.00;83.70;;;;;;4938057;28;100749;-72
2021/11/29 03:03:59;;;;;;;0.95;0.40;;;4.00;83.30;;;;;;4938613;28;98588;-73
2021/11/29 03:06:26;;;;;;;0.40;0.40;;;4.00;83.30;;;;;;4955885;28;98495;-73
2021/11/29 03:08:53;;;;;;;0.63;0.57;;;4.00;83.40;;;;;;4937824;28;100192;-73
2021/11/29 03:11:20;;;;;;;0.65;0.28;;;4.00;83.20;;;;;;4955327;28;98865;-72
2021/11/29 03:13:48;;;;;;;0.40;0.40;;;3.90;83.10;;;;;;4955664;28;98446;-72
2021/11/29 03:16:15;;;;;;;1.27;0.40;;;3.90;83.10;;;;;;4956471;28;97798;-72
2021/11/29 03:18:43;;;;;;;1.02;0.35;;;3.80;83.70;;;;;;4955160;28;99128;-72
2021/11/29 03:21:15;;;;;;;1.33;0.50;;;3.80;83.70;;;;;;4954772;28;108961;-72
2021/11/29 03:23:44;;;;;;;2.20;0.50;;;3.70;84.70;;;;;;4955576;28;99225;-72
2021/11/29 03:26:15;;;;;;;1.05;0.45;;;3.70;84.20;;;;;;4955687;28;98585;-72
2021/11/29 03:28:43;;;;;;;1.83;0.50;;;3.70;85.20;;;;;;4955104;28;100135;-72
2021/11/29 03:31:12;;;;;;;2.22;0.40;;;3.70;84.50;;;;;;4955507;28;98724;-72
2021/11/29 03:33:41;;;;;;;0.50;0.50;;;3.80;85.20;;;;;;4955325;28;98985;-72
2021/11/29 03:36:09;;;;;;;2.55;0.70;;;3.80;84.90;;;;;;4955819;28;99044;-72
2021/11/29 03:38:37;;;;;;;1.27;0.45;;;3.80;84.60;;;;;;4954232;28;117142;-72
2021/11/29 03:41:06;;;;;;;1.08;0.55;;;3.90;84.60;;;;;;4954238;28;100733;-72
2021/11/29 03:43:34;;;;;;;1.88;0.57;;;4.00;84.80;;;;;;4954080;28;98572;-72
2021/11/29 03:46:00;;;;;;;2.22;0.57;;;4.00;84.40;;;;;;4937998;28;98588;-72
2021/11/29 03:48:28;;;;;;;3.50;0.80;;;4.00;84.00;;;;;;4954703;28;100013;-72
2021/11/29 03:50:55;;;;;;;2.75;0.70;;;4.00;83.90;;;;;;4954762;28;99603;-72
2021/11/29 03:53:22;;;;;;;2.65;0.60;;;3.90;84.00;;;;;;4955430;28;98547;-72
2021/11/29 03:55:49;;;;;;;2.10;0.80;;;3.90;83.70;;;;;;4955275;28;99180;-72
2021/11/29 03:58:17;;;;;;;2.72;0.70;;;3.80;83.80;;;;;;4954358;28;108947;-72
2021/11/29 04:00:44;;;;;;;1.85;0.63;;;3.80;83.90;;;;;;4954625;28;98813;-73
2021/11/29 04:03:11;;;;;;;2.45;0.85;;;3.70;83.80;;;;;;4953708;28;98563;-73
2021/11/29 04:05:38;;;;;;;1.67;0.70;;;3.70;83.80;;;;;;4955545;28;97855;-73
2021/11/29 04:08:06;;;;;;;0.60;0.60;;;3.70;83.80;;;;;;4954724;28;99148;-72
2021/11/29 04:10:35;;;;;;;3.13;0.73;;;3.70;84.00;;;;;;4954571;28;98830;-72
2021/11/29 04:13:02;;;;;;;2.78;0.57;;;3.60;84.00;;;;;;4954504;28;99257;-72
2021/11/29 04:15:29;;;;;;;2.42;0.68;;;3.70;84.30;;;;;;4936687;28;111305;-72
2021/11/29 04:17:57;;;;;;;2.38;0.60;;;3.70;84.30;;;;;;4936703;28;100154;-72
2021/11/29 04:20:24;;;;;;;5.78;1.67;;;3.70;84.10;;;;;;4936653;28;100023;-72
2021/11/29 04:22:52;;;;;;;8.00;1.08;;;3.70;84.00;;;;;;4937227;28;98536;-72
2021/11/29 04:25:24;;;;;;;5.20;0.80;;;3.70;84.10;;;;;;4937250;28;99077;-72
2021/11/29 04:27:53;;;;;;;0.82;0.70;;;3.60;84.10;;;;;;4954356;28;99046;-72
2021/11/29 04:30:24;;;;;;;2.38;0.60;;;3.60;84.20;;;;;;4954026;28;118338;-72
2021/11/29 04:32:54;;;;;;;4.45;1.17;;;3.60;84.30;;;;;;4954878;28;99156;-72
2021/11/29 04:35:21;;;;;;;5.03;0.80;;;3.50;84.50;;;;;;4954788;28;98424;-72
2021/11/29 04:37:48;;;;;;;3.70;0.70;;;3.40;84.80;;;;;;4953639;28;99752;-72
2021/11/29 04:40:16;;;;;;;4.65;0.93;;;3.40;84.90;;;;;;4953790;28;99426;-72
2021/11/29 04:42:43;;;;;;;2.65;0.73;;;3.30;85.40;;;;;;4936658;28;98608;-72
2021/11/29 04:45:10;;;;;;;3.83;0.90;;;3.30;85.50;;;;;;4954736;28;99011;-72
2021/11/29 04:47:37;;;;;;;3.85;1.02;;;3.30;85.70;;;;;;4953387;28;118886;-72
2021/11/29 04:50:06;;;;;;;2.58;0.60;;;3.20;85.90;;;;;;4936741;28;102011;-72
2021/11/29 04:52:34;;;;;;;3.47;0.95;;;3.20;85.90;;;;;;4954402;28;98685;-72
2021/11/29 04:55:06;;;;;;;2.55;0.85;;;3.20;86.50;;;;;;4954483;28;97790;-72
2021/11/29 04:57:33;;;;;;;3.05;0.98;;;3.20;87.10;;;;;;4935687;28;99242;-72
2021/11/29 05:00:01;;;;;;;3.53;0.88;;;3.30;87.40;;;;;;4953712;28;98893;-72
2021/11/29 05:02:28;;;;;;;2.97;1.05;;;3.30;87.00;;;;;;4953567;28;99217;-72
2021/11/29 05:04:55;;;;;;;6.20;1.35;;;3.30;87.10;;;;;;4935801;28;106951;-72
2021/11/29 05:07:22;;;;;;;2.85;0.80;;;3.30;87.20;;;;;;4953784;28;99209;-72
2021/11/29 05:09:49;;;;;;;1.98;0.80;;;3.30;87.30;;;;;;4953687;28;98817;-72
2021/11/29 05:12:16;;;;;;;3.35;0.88;;;3.30;87.60;;;;;;4954223;28;98523;-72
2021/11/29 05:14:46;;;;;;;3.92;0.82;;;3.30;88.50;;;;;;4936932;28;99327;-72
2021/11/29 05:17:14;;;;;;;4.50;1.30;;;3.30;88.30;;;;;;4953461;28;99087;-72
2021/11/29 05:19:42;;;;;;;3.42;1.10;;;3.30;88.50;;;;;;4952285;28;113906;-72
2021/11/29 05:22:09;;;;;;;0.90;0.90;;;3.30;88.70;;;;;;4953920;28;98393;-72
2021/11/29 05:24:36;;;;;;;3.85;0.90;;;3.30;88.90;;;;;;4953985;28;98604;-72
2021/11/29 05:27:04;;;;;;;3.80;1.08;;;3.30;89.00;;;;;;4952990;28;99868;-72
2021/11/29 05:29:31;;;;;;;5.50;1.70;;;3.30;89.30;;;;;;4953483;28;99488;-72
2021/11/29 05:31:58;;;;;;;4.60;2.40;;;3.30;89.20;;;;;;4952568;28;98736;-72
2021/11/29 05:34:25;;;;;;;6.70;2.42;;;3.40;89.10;;;;;;4953870;28;99330;-72
2021/11/29 05:37:06;;;;;;;6.93;2.83;;;3.40;88.80;;;;;;4952996;28;100229;-72
2021/11/29 05:39:33;;;;;;;6.07;2.13;;;3.40;88.30;;;;;;4953535;28;98963;-72
2021/11/29 05:42:00;;;;;;;8.48;2.70;;;3.40;88.00;;;;;;4953451;28;98406;-72
2021/11/29 05:44:27;;;;;;;8.00;2.85;;;3.30;87.90;;;;;;4954028;28;98504;-72
2021/11/29 05:46:54;;;;;;;6.43;2.75;;;3.30;87.80;;;;;;4953035;28;99194;-72
2021/11/29 05:49:21;;;;;;;6.25;3.15;;;3.30;87.80;;;;;;4935922;28;98960;-72
2021/11/29 05:51:48;;;;;;;8.73;3.05;;;3.20;87.70;;;;;;4953164;28;99247;-72
2021/11/29 05:54:15;;;;;;;7.32;3.22;;;3.10;87.70;;;;;;4951965;28;102271;-72
2021/11/29 05:56:42;;;;;;;6.68;3.25;;;3.10;87.60;;;;;;4953156;28;99319;-72
2021/11/29 05:59:09;;;;;;;8.30;3.65;;;3.10;87.80;;;;;;4935174;28;100053;-72
2021/11/29 06:01:36;;;;;;;8.80;3.65;;;3.00;88.10;;;;;;4935919;28;98557;-72
2021/11/29 06:04:03;;;;;;;9.05;3.83;;;3.00;88.20;;;;;;4953040;28;98517;-72
2021/11/29 06:06:30;;;;;;;12.45;4.60;;;2.90;88.10;;;;;;4935765;28;99139;-72
2021/11/29 06:08:57;;;;;;;10.75;3.95;;;2.90;88.00;;;;;;4951436;28;112615;-72
2021/11/29 06:11:24;;;;;;;12.20;4.28;;;2.90;88.10;;;;;;4953353;28;98531;-72
2021/11/29 06:13:52;;;;;;;9.40;5.30;;;2.90;88.20;;;;;;4953205;28;98531;-73
2021/11/29 06:16:19;;;;;;;12.15;4.25;;;2.80;88.20;;;;;;4933687;28;100998;-72
2021/11/29 06:18:46;;;;;;;5.32;3.17;;;2.80;88.20;;;;;;4935081;28;100697;-72
2021/11/29 06:21:13;;;;;;;8.48;3.63;;;2.80;88.30;;;;;;4935816;28;98576;-73
2021/11/29 06:23:40;;;;;;;9.32;3.90;;;2.80;88.10;;;;;;4953150;28;98502;-72
2021/11/29 06:26:07;;;;;;;6.70;3.45;;;2.70;88.20;;;;;;4934466;28;110669;-72
2021/11/29 06:28:34;;;;;;;7.55;3.33;;;2.70;88.20;;;;;;4935179;28;100005;-72
2021/11/29 06:31:01;;;;;;;6.75;4.07;;;2.70;88.40;;;;;;4952872;28;98813;-72
2021/11/29 06:33:29;;;;;;;8.68;3.40;;;2.70;88.50;;;;;;4953593;28;98385;-72
2021/11/29 06:35:59;;;;;;;9.07;3.85;;;2.80;88.40;;;;;;4952395;28;99110;-72
2021/11/29 06:38:30;;;;;;;7.75;3.80;;;2.80;88.50;;;;;;4952709;28;99087;-72
2021/11/29 06:40:58;;;;;;;7.72;3.47;;;2.80;88.60;;;;;;4952618;28;99189;-72
2021/11/29 06:43:26;;;;;;;9.38;4.18;;;2.90;88.40;;;;;;4952069;28;102504;-72
2021/11/29 06:45:53;;;;;;;7.38;3.20;;;2.90;88.20;;;;;;4952607;28;99167;-72
2021/11/29 06:48:22;;;;;;;4.60;3.10;;;2.90;88.30;;;;;;4934653;28;100219;-72
2021/11/29 06:50:50;;;;;;;4.63;2.92;;;2.90;88.20;;;;;;4952833;28;99041;-72
2021/11/29 06:53:17;;;;;;;7.10;3.47;;;2.90;88.30;;;;;;4952429;28;98553;-72
2021/11/29 06:55:46;;;;;;;5.40;3.28;;;2.90;88.30;;;;;;4934953;28;99757;-72
2021/11/29 06:58:13;;;;;;;6.78;3.33;;;2.90;88.60;;;;;;4934290;28;101746;-72
2021/11/29 07:00:40;;;;;;;6.13;3.35;;;2.90;88.50;;;;;;4952913;28;98885;-72
2021/11/29 07:03:07;;;;;;;8.55;3.53;;;2.80;88.50;;;;;;4952215;28;103984;-72
2021/11/29 07:05:35;;;;;;;7.40;3.55;;;2.80;88.70;;;;;;4951871;28;99924;-72
2021/11/29 07:08:02;;;;;;;12.73;3.35;;;2.80;88.60;;;;;;4951963;28;99588;-72
2021/11/29 07:10:29;;;;;;;6.38;3.08;;;2.80;88.60;;;;;;4951243;28;98758;-73
2021/11/29 07:12:57;;;;;;;10.95;4.05;;;2.80;88.50;;;;;;4952714;28;98499;-73
2021/11/29 07:15:27;;;;;;;10.10;3.83;;;2.70;88.40;;;;;;4952024;28;100418;-72
2021/11/29 07:17:54;;;;;;;12.30;4.53;;;2.70;88.40;;;;;;4951754;28;98745;-72
2021/11/29 07:20:21;;;;;;;7.90;3.67;;;2.60;88.50;;;;;;4934002;28;101749;-72
2021/11/29 07:22:48;;;;;;;9.70;3.80;;;2.60;88.50;;;;;;4935409;28;97842;-72
2021/11/29 07:25:16;;;;;;;11.93;4.95;;;2.60;88.40;;;;;;4951937;28;99205;-72
2021/11/29 07:27:44;;;;;;;15.07;9.93;;;2.60;88.50;;;;;;4936730;28;99971;-72
2021/11/29 07:30:14;;;;;;;23.00;13.23;;;2.60;88.50;;;;;;4955097;28;99830;-72
2021/11/29 07:32:41;;;;;;;30.38;17.70;;;2.60;88.50;;;;;;4937356;28;98555;-72
2021/11/29 07:35:09;;;;;;;35.13;19.42;;;2.50;88.40;;;;;;4936246;28;112327;-72
2021/11/29 07:37:37;;;;;;;28.45;17.33;;;2.50;88.40;;;;;;4954299;28;98904;-72
2021/11/29 07:40:07;;;;;;;23.35;12.43;;;2.50;88.40;;;;;;4954644;28;99181;-72
2021/11/29 07:42:34;;;;;;;14.45;8.43;;;2.60;88.40;;;;;;4954903;28;98527;-72
2021/11/29 07:45:02;;;;;;;9.35;4.70;;;2.50;88.30;;;;;;4954983;28;99021;-72
2021/11/29 07:47:29;;;;;;;9.15;4.30;;;2.50;88.10;;;;;;4955510;28;99420;-72
2021/11/29 07:49:56;;;;;;;8.60;4.45;;;2.60;88.00;;;;;;4954885;28;99166;-72
2021/11/29 07:52:23;;;;;;;18.58;8.70;;;2.60;88.00;;;;;;4955146;28;98550;-72
2021/11/29 07:54:50;;;;;;;18.42;6.38;;;2.60;88.00;;;;;;4954622;28;100091;-72
2021/11/29 07:57:17;;;;;;;17.95;6.35;;;2.60;88.10;;;;;;4954284;28;99607;-71
2021/11/29 07:59:46;;;;;;;9.77;4.75;;;2.60;88.10;;;;;;4955227;28;98586;-72
2021/11/29 08:02:20;;;;;;;7.65;4.60;;;2.70;87.90;;;;;;4954907;28;98519;-72
2021/11/29 08:04:47;;;;;;;12.32;6.20;;;2.70;87.60;;;;;;4937401;28;98970;-72
2021/11/29 08:07:16;;;;;;;9.13;4.80;;;2.70;87.60;;;;;;4954491;28;98854;-72
2021/11/29 08:09:43;;;;;;;9.48;4.90;;;2.80;87.60;;;;;;4954577;28;102281;-72
2021/11/29 08:12:11;;;;;;;9.70;4.53;;;2.80;87.20;;;;;;4937408;28;98111;-72
2021/11/29 08:14:38;;;;;;;15.32;8.10;;;2.80;87.00;;;;;;4954468;28;99165;-72
2021/11/29 08:17:06;;;;;;;14.38;7.30;;;2.80;86.70;;;;;;4954608;28;98948;-72
2021/11/29 08:19:32;;;;;;;19.30;9.35;;;2.80;86.70;;;;;;4954197;28;99234;-72
2021/11/29 08:21:59;;;;;;;14.98;6.03;;;2.90;87.20;;;;;;4954223;28;107076;-72
2021/11/29 08:24:30;;;;;;;10.95;5.55;;;2.90;87.60;;;;;;4954277;28;99023;-72
2021/11/29 08:26:57;;;;;;;10.05;4.88;;;2.90;87.60;;;;;;4954422;28;98942;-72
2021/11/29 08:29:24;;;;;;;8.55;4.63;;;3.00;87.00;;;;;;4954855;28;99176;-72
2021/11/29 08:31:51;;;;;;;7.43;4.60;;;3.00;86.90;;;;;;4937122;28;98646;-72
2021/11/29 08:34:18;;;;;;;11.50;5.07;;;3.00;87.00;;;;;;4936764;28;99112;-72
2021/11/29 08:36:46;;;;;;;9.40;4.60;;;3.00;87.00;;;;;;4954653;28;98775;-72
2021/11/29 08:39:13;;;;;;;10.63;5.57;;;3.00;87.10;;;;;;4953115;28;98926;-73
2021/11/29 08:41:41;;;;;;;12.18;5.43;;;3.10;87.20;;;;;;4937374;28;98498;-72
2021/11/29 08:44:08;;;;;;;13.15;6.30;;;3.10;86.80;;;;;;4936244;28;99894;-73
2021/11/29 08:46:35;;;;;;;11.20;5.47;;;3.20;87.00;;;;;;4953703;28;99580;-72
2021/11/29 08:49:03;;;;;;;12.77;5.55;;;3.20;86.90;;;;;;4954307;28;98586;-72
2021/11/29 08:51:31;;;;;;;17.30;7.38;;;3.30;87.40;;;;;;4954236;28;98494;-72
2021/11/29 08:53:58;;;;;;;16.00;6.78;;;3.40;87.60;;;;;;4936387;28;103554;-72
2021/11/29 08:56:25;;;;;;;11.18;6.50;;;3.40;87.00;;;;;;4936116;28;100053;-72
2021/11/29 08:58:52;;;;;;;15.30;7.72;;;3.40;87.00;;;;;;4953427;28;99518;-73
2021/11/29 09:01:19;;;;;;;17.15;7.97;;;3.50;86.70;;;;;;4936958;28;98250;-72
2021/11/29 09:03:47;;;;;;;12.18;8.15;;;3.60;86.70;;;;;;4953704;28;99241;-72
2021/11/29 09:06:14;;;;;;;16.30;7.38;;;3.70;86.60;;;;;;4953606;28;98779;-72
2021/11/29 09:08:41;;;;;;;12.98;7.07;;;3.70;86.50;;;;;;4938272;28;99766;-72
2021/11/29 09:11:09;;;;;;;14.50;6.82;;;3.80;86.30;;;;;;4955695;28;98566;-74
2021/11/29 09:13:40;;;;;;;11.50;6.45;;;3.90;86.10;;;;;;4972913;28;99227;-72
2021/11/29 09:16:09;;;;;;;13.73;6.18;;;4.00;85.90;;;;;;4973034;28;99010;-72
2021/11/29 09:18:37;;;;;;;13.50;6.13;;;4.00;85.60;;;;;;4973325;28;98421;-72
2021/11/29 09:21:04;;;;;;;11.20;5.53;;;4.10;85.50;;;;;;4973207;28;98507;-72
2021/11/29 09:23:32;;;;;;;11.85;5.82;;;4.10;85.40;;;;;;4972786;28;98543;-72
2021/11/29 09:26:00;;;;;;;11.25;6.07;;;4.20;85.40;;;;;;4973475;28;98861;-72
2021/11/29 09:28:27;;;;;;;9.95;5.50;;;4.20;85.20;;;;;;4973175;28;99023;-72
2021/11/29 09:30:54;;;;;;;9.32;5.70;;;4.30;85.00;;;;;;4973482;28;98425;-72
2021/11/29 09:33:22;;;;;;;9.13;5.78;;;4.40;84.70;;;;;;4954502;28;101021;-72
2021/11/29 09:35:50;;;;;;;11.55;6.10;;;4.40;84.60;;;;;;4973022;28;99585;-72
2021/11/29 09:38:17;;;;;;;9.55;5.78;;;4.50;84.40;;;;;;4973421;28;98552;-72
2021/11/29 09:40:47;;;;;;;14.43;6.50;;;4.60;84.20;;;;;;4971782;28;98536;-72
2021/11/29 09:43:16;;;;;;;12.63;7.10;;;4.70;83.60;;;;;;4972369;28;111671;-72
2021/11/29 09:45:46;;;;;;;11.23;7.15;;;4.80;83.30;;;;;;4954733;28;100348;-72
2021/11/29 09:48:14;;;;;;;10.05;6.68;;;4.80;83.30;;;;;;4973206;28;98589;-73
2021/11/29 09:50:47;;;;;;;11.77;6.57;;;5.00;83.20;;;;;;4955678;28;97872;-72
2021/11/29 09:53:16;;;;;;;15.38;7.57;;;5.10;82.90;;;;;;4972792;28;99062;-72
2021/11/29 09:55:44;;;;;;;10.38;6.47;;;5.20;82.80;;;;;;4954558;28;100146;-72
2021/11/29 09:58:11;;;;;;;10.43;7.05;;;5.40;82.80;;;;;;4954647;28;100188;-72
2021/11/29 10:00:43;;;;;;;11.90;7.32;;;5.70;81.60;;;;;;4972447;28;98559;-72
2021/11/29 10:03:10;;;;;;;9.95;5.88;;;5.90;80.70;;;;;;4955284;28;99046;-72
2021/11/29 10:05:37;;;;;;;10.13;6.40;;;6.00;80.80;;;;;;4972344;28;98849;-73
2021/11/29 10:08:31;;;;;;;11.35;7.10;;;6.20;80.30;;;;;;4972974;28;98590;-72
2021/11/29 10:11:19;;;;;;;8.50;5.63;;;6.40;79.50;;;;;;4972848;28;98697;-72
2021/11/29 10:13:52;;;;;;;9.38;5.88;;;6.40;79.20;;;;;;4971017;28;99145;-72
2021/11/29 10:16:57;;;;;;;12.50;6.47;;;6.40;78.80;;;;;;4972796;28;98840;-72
2021/11/29 10:19:24;;;;;;;9.38;5.97;;;6.50;78.60;;;;;;4932853;28;98673;-72
2021/11/29 10:21:51;;;;;;;8.88;5.65;;;6.50;78.50;;;;;;4972359;28;98523;-72
2021/11/29 10:24:19;;;;;;;8.90;4.95;;;6.60;78.70;;;;;;4954002;28;101034;-72
2021/11/29 10:26:51;;;;;;;7.57;5.55;;;6.60;78.50;;;;;;4972012;28;100684;-72
2021/11/29 10:29:23;;;;;;;11.43;5.78;;;6.60;78.10;;;;;;4972777;28;98453;-72
2021/11/29 10:31:53;;;;;;;9.15;5.38;;;6.60;78.00;;;;;;4954646;28;98578;-72
2021/11/29 10:34:27;;;;;;;8.48;5.80;;;6.70;77.90;;;;;;4972220;28;99123;-72
2021/11/29 10:36:59;;;;;;;8.52;5.80;;;6.70;78.00;;;;;;4972448;28;98777;-72
2021/11/29 10:39:36;;;;;;;9.60;5.97;;;6.80;77.60;;;;;;4972618;28;98602;-72
2021/11/29 10:42:09;;;;;;;9.82;5.88;;;6.90;77.70;;;;;;4955150;28;97933;-73
2021/11/29 10:44:42;;;;;;;9.90;6.00;;;6.90;77.70;;;;;;4972133;28;99226;-72
2021/11/29 10:47:19;;;;;;;10.13;6.28;;;7.00;77.40;;;;;;4971767;28;98972;-72
2021/11/29 10:49:52;;;;;;;10.57;6.65;;;7.10;77.60;;;;;;4954094;28;99334;-72
2021/11/29 10:52:22;;;;;;;8.68;6.15;;;7.10;77.20;;;;;;4954775;28;98612;-72
2021/11/29 10:54:50;;;;;;;11.10;5.38;;;7.20;77.10;;;;;;4971853;28;99103;-72
2021/11/29 10:57:21;;;;;;;10.15;5.90;;;7.20;76.60;;;;;;4972238;28;98547;-72
2021/11/29 10:59:50;;;;;;;8.35;5.80;;;7.30;77.10;;;;;;4971218;28;98630;-72
2021/11/29 11:02:30;;;;;;;9.25;5.53;;;7.30;76.60;;;;;;4974536;28;98625;-72
2021/11/29 11:05:15;;;;;;;7.82;5.25;;;7.40;76.50;;;;;;4957510;28;100202;-73
2021/11/29 11:07:42;;;;;;;9.55;6.40;;;7.50;76.10;;;;;;4973686;28;107607;-73
2021/11/29 11:10:14;;;;;;;8.38;6.10;;;7.50;76.00;;;;;;4957833;28;98933;-72
2021/11/29 11:12:42;;;;;;;11.13;5.47;;;7.50;75.90;;;;;;4974910;28;98551;-72
2021/11/29 11:15:12;;;;;;;8.10;5.35;;;7.50;75.60;;;;;;4957026;28;100183;-72
2021/11/29 11:17:59;;;;;;;7.68;5.30;;;7.60;75.50;;;;;;4957349;28;100689;-72
2021/11/29 11:20:26;;;;;;;10.20;5.80;;;7.60;75.20;;;;;;4957544;28;98643;-73
2021/11/29 11:22:55;;;;;;;8.25;5.55;;;7.60;74.70;;;;;;4975109;28;98559;-72
2021/11/29 11:25:30;;;;;;;7.18;5.30;;;7.60;74.40;;;;;;4974765;28;99124;-72
2021/11/29 11:28:04;;;;;;;11.00;5.75;;;7.70;74.00;;;;;;4974975;28;98875;-72
2021/11/29 11:30:35;;;;;;;8.02;5.97;;;7.70;73.50;;;;;;4975483;28;98587;-72
2021/11/29 11:33:02;;;;;;;7.22;5.65;;;7.70;73.40;;;;;;4958090;28;97893;-72
2021/11/29 11:35:33;;;;;;;6.75;5.63;;;7.80;73.70;;;;;;4974423;28;100136;-72
2021/11/29 11:38:14;;;;;;;7.13;5.57;;;7.80;73.10;;;;;;4974746;28;98887;-72
2021/11/29 11:40:44;;;;;;;8.68;6.22;;;7.80;72.90;;;;;;4974855;28;99178;-72
2021/11/29 11:43:14;;;;;;;7.43;6.00;;;7.70;73.10;;;;;;4957578;28;98635;-72
2021/11/29 11:45:46;;;;;;;8.73;6.05;;;7.60;73.10;;;;;;4974039;28;99203;-72
2021/11/29 11:48:14;;;;;;;7.45;5.38;;;7.50;73.50;;;;;;4974296;28;99903;-72
2021/11/29 11:50:48;;;;;;;8.52;6.00;;;7.50;73.70;;;;;;4973617;28;99078;-72
2021/11/29 11:53:16;;;;;;;11.02;6.72;;;7.50;73.60;;;;;;4957156;28;98626;-72
2021/11/29 11:55:47;;;;;;;8.38;6.22;;;7.50;73.50;;;;;;4973220;28;99217;-73
2021/11/29 11:58:21;;;;;;;8.13;5.57;;;7.50;73.90;;;;;;4974966;28;98828;-72
2021/11/29 12:01:11;;;;;;;6.97;4.82;;;7.50;73.70;;;;;;4956937;28;98587;-72
2021/11/29 12:03:44;;;;;;;7.63;5.82;;;7.50;73.20;;;;;;4975020;28;98614;-72
2021/11/29 12:06:15;;;;;;;5.40;4.40;;;7.40;72.90;;;;;;4973920;28;100067;-72
2021/11/29 12:09:00;;;;;;;7.90;5.45;;;7.30;73.10;;;;;;4973939;28;99511;-72
2021/11/29 12:11:33;;;;;;;7.38;4.93;;;7.40;73.00;;;;;;4974704;28;98564;-72
2021/11/29 12:14:23;;;;;;;8.52;5.45;;;7.40;73.10;;;;;;4973417;28;99380;-72
2021/11/29 12:17:00;;;;;;;8.63;5.97;;;7.40;72.90;;;;;;4973938;28;101869;-72
2021/11/29 12:19:34;;;;;;;6.75;5.00;;;7.40;73.40;;;;;;4973794;28;98835;-72
2021/11/29 12:22:10;;;;;;;8.73;5.70;;;7.40;73.20;;;;;;4974254;28;98972;-72
2021/11/29 12:24:50;;;;;;;5.93;4.80;;;7.40;73.40;;;;;;4975090;28;98283;-72
2021/11/29 12:27:17;;;;;;;6.90;5.32;;;7.40;73.30;;;;;;4974131;28;99231;-72
2021/11/29 12:29:47;;;;;;;8.07;5.18;;;7.40;73.50;;;;;;4972998;28;116910;-72
2021/11/29 12:32:17;;;;;;;6.68;4.95;;;7.40;73.10;;;;;;4973783;28;99274;-72
2021/11/29 12:34:47;;;;;;;6.13;5.10;;;7.40;73.40;;;;;;4973582;28;98550;-72
2021/11/29 12:37:23;;;;;;;6.97;4.97;;;7.40;73.00;;;;;;4972578;28;99338;-72
2021/11/29 12:39:56;;;;;;;6.05;4.30;;;7.40;72.90;;;;;;4955547;28;100055;-72
2021/11/29 12:42:26;;;;;;;6.63;4.43;;;7.40;73.00;;;;;;4974303;28;98533;-72
2021/11/29 12:45:16;;;;;;;5.22;4.35;;;7.40;73.60;;;;;;4973726;28;99076;-72
2021/11/29 12:47:55;;;;;;;6.15;4.72;;;7.50;73.00;;;;;;4945740;28;100568;-72
2021/11/29 12:50:37;;;;;;;7.18;4.20;;;7.50;72.40;;;;;;4973924;28;99893;-71
2021/11/29 12:53:19;;;;;;;8.93;4.95;;;7.50;72.20;;;;;;4973653;28;98497;-72
2021/11/29 12:55:50;;;;;;;6.63;4.47;;;7.50;72.90;;;;;;4974019;28;98435;-72
2021/11/29 12:58:20;;;;;;;6.15;4.80;;;7.50;72.80;;;;;;4939342;28;100925;-71
2021/11/29 13:01:13;;;;;;;6.47;4.60;;;7.60;72.40;;;;;;4972352;28;99465;-72
2021/11/29 13:03:42;;;;;;;6.20;4.60;;;7.70;72.10;;;;;;4973906;28;98514;-72